sensor_id;sensor_type;location;lat;lon;timestamp;P1;durP1;ratioP1;P2;durP2;ratioP2
14599;SDS011;7386;45.586;12.854;2023-07-31T00:00:00;8.65;;;5.00;;
14599;SDS011;7386;45.586;12.854;2023-07-31T00:02:28;6.03;;;4.97;;
14599;SDS011;7386;45.586;12.854;2023-07-31T00:04:59;5.78;;;4.75;;
14599;SDS011;7386;45.586;12.854;2023-07-31T00:07:27;5.22;;;4.63;;
14599;SDS011;7386;45.586;12.854;2023-07-31T00:09:55;7.13;;;4.90;;
14599;SDS011;7386;45.586;12.854;2023-07-31T00:12:24;6.13;;;5.50;;
14599;SDS011;7386;45.586;12.854;2023-07-31T00:14:52;6.18;;;5.20;;
14599;SDS011;7386;45.586;12.854;2023-07-31T00:17:21;5.95;;;5.35;;
14599;SDS011;7386;45.586;12.854;2023-07-31T00:19:49;7.30;;;5.50;;
14599;SDS011;7386;45.586;12.854;2023-07-31T00:22:19;6.75;;;5.30;;
14599;SDS011;7386;45.586;12.854;2023-07-31T00:24:48;5.82;;;5.22;;
14599;SDS011;7386;45.586;12.854;2023-07-31T00:27:17;6.30;;;5.22;;
14599;SDS011;7386;45.586;12.854;2023-07-31T00:29:45;5.93;;;5.07;;
14599;SDS011;7386;45.586;12.854;2023-07-31T00:32:14;7.20;;;5.10;;
14599;SDS011;7386;45.586;12.854;2023-07-31T00:34:42;5.22;;;4.72;;
14599;SDS011;7386;45.586;12.854;2023-07-31T00:37:11;6.00;;;4.65;;
14599;SDS011;7386;45.586;12.854;2023-07-31T00:39:41;5.03;;;4.47;;
14599;SDS011;7386;45.586;12.854;2023-07-31T00:42:10;5.38;;;4.38;;
14599;SDS011;7386;45.586;12.854;2023-07-31T00:44:38;6.45;;;4.90;;
14599;SDS011;7386;45.586;12.854;2023-07-31T00:47:07;5.22;;;4.15;;
14599;SDS011;7386;45.586;12.854;2023-07-31T00:49:35;5.32;;;4.22;;
14599;SDS011;7386;45.586;12.854;2023-07-31T00:52:04;5.47;;;4.55;;
14599;SDS011;7386;45.586;12.854;2023-07-31T00:54:33;6.15;;;4.72;;
14599;SDS011;7386;45.586;12.854;2023-07-31T00:57:03;5.00;;;4.13;;
14599;SDS011;7386;45.586;12.854;2023-07-31T00:59:34;5.05;;;4.10;;
14599;SDS011;7386;45.586;12.854;2023-07-31T01:02:02;7.05;;;4.07;;
14599;SDS011;7386;45.586;12.854;2023-07-31T01:04:31;4.88;;;3.78;;
14599;SDS011;7386;45.586;12.854;2023-07-31T01:07:01;4.43;;;3.80;;
14599;SDS011;7386;45.586;12.854;2023-07-31T01:09:32;4.28;;;3.88;;
14599;SDS011;7386;45.586;12.854;2023-07-31T01:12:04;5.28;;;3.80;;
14599;SDS011;7386;45.586;12.854;2023-07-31T01:14:35;6.70;;;3.80;;
14599;SDS011;7386;45.586;12.854;2023-07-31T01:17:03;4.50;;;3.97;;
14599;SDS011;7386;45.586;12.854;2023-07-31T01:19:32;4.15;;;3.75;;
14599;SDS011;7386;45.586;12.854;2023-07-31T01:24:55;3.88;;;3.47;;
14599;SDS011;7386;45.586;12.854;2023-07-31T01:27:25;4.97;;;3.90;;
14599;SDS011;7386;45.586;12.854;2023-07-31T01:29:56;4.50;;;3.60;;
14599;SDS011;7386;45.586;12.854;2023-07-31T01:32:27;4.55;;;3.58;;
14599;SDS011;7386;45.586;12.854;2023-07-31T01:34:56;4.95;;;3.75;;
14599;SDS011;7386;45.586;12.854;2023-07-31T01:37:27;5.22;;;3.72;;
14599;SDS011;7386;45.586;12.854;2023-07-31T01:39:56;4.22;;;3.53;;
14599;SDS011;7386;45.586;12.854;2023-07-31T01:42:26;6.32;;;3.55;;
14599;SDS011;7386;45.586;12.854;2023-07-31T01:44:54;4.43;;;3.47;;
14599;SDS011;7386;45.586;12.854;2023-07-31T01:47:23;4.55;;;3.45;;
14599;SDS011;7386;45.586;12.854;2023-07-31T01:49:52;4.30;;;3.33;;
14599;SDS011;7386;45.586;12.854;2023-07-31T01:52:20;4.55;;;3.50;;
14599;SDS011;7386;45.586;12.854;2023-07-31T01:54:48;5.15;;;3.45;;
14599;SDS011;7386;45.586;12.854;2023-07-31T01:57:17;4.55;;;3.58;;
14599;SDS011;7386;45.586;12.854;2023-07-31T01:59:47;4.03;;;3.47;;
14599;SDS011;7386;45.586;12.854;2023-07-31T02:02:15;3.22;;;2.88;;
14599;SDS011;7386;45.586;12.854;2023-07-31T02:04:44;5.47;;;3.17;;
14599;SDS011;7386;45.586;12.854;2023-07-31T02:07:13;3.47;;;3.17;;
14599;SDS011;7386;45.586;12.854;2023-07-31T02:09:41;3.78;;;3.10;;
14599;SDS011;7386;45.586;12.854;2023-07-31T02:12:09;4.40;;;3.10;;
14599;SDS011;7386;45.586;12.854;2023-07-31T02:14:38;3.47;;;3.13;;
14599;SDS011;7386;45.586;12.854;2023-07-31T02:17:08;4.18;;;3.08;;
14599;SDS011;7386;45.586;12.854;2023-07-31T02:19:36;3.45;;;2.65;;
14599;SDS011;7386;45.586;12.854;2023-07-31T02:22:05;3.83;;;3.35;;
14599;SDS011;7386;45.586;12.854;2023-07-31T02:24:33;4.03;;;3.28;;
14599;SDS011;7386;45.586;12.854;2023-07-31T02:27:02;5.22;;;3.22;;
14599;SDS011;7386;45.586;12.854;2023-07-31T02:29:31;3.33;;;2.95;;
14599;SDS011;7386;45.586;12.854;2023-07-31T02:31:59;4.38;;;3.30;;
14599;SDS011;7386;45.586;12.854;2023-07-31T02:34:29;3.83;;;2.92;;
14599;SDS011;7386;45.586;12.854;2023-07-31T02:36:57;4.35;;;3.10;;
14599;SDS011;7386;45.586;12.854;2023-07-31T02:39:26;3.40;;;3.10;;
14599;SDS011;7386;45.586;12.854;2023-07-31T02:41:54;5.43;;;3.00;;
14599;SDS011;7386;45.586;12.854;2023-07-31T02:44:23;3.13;;;2.83;;
14599;SDS011;7386;45.586;12.854;2023-07-31T02:46:51;7.50;;;3.30;;
14599;SDS011;7386;45.586;12.854;2023-07-31T02:49:20;4.50;;;3.00;;
14599;SDS011;7386;45.586;12.854;2023-07-31T02:51:50;3.50;;;2.80;;
14599;SDS011;7386;45.586;12.854;2023-07-31T02:54:18;3.63;;;2.88;;
14599;SDS011;7386;45.586;12.854;2023-07-31T02:56:47;3.65;;;2.92;;
14599;SDS011;7386;45.586;12.854;2023-07-31T02:59:17;5.88;;;3.38;;
14599;SDS011;7386;45.586;12.854;2023-07-31T03:01:45;3.15;;;2.85;;
14599;SDS011;7386;45.586;12.854;2023-07-31T03:04:14;5.57;;;2.85;;
14599;SDS011;7386;45.586;12.854;2023-07-31T03:06:44;5.18;;;3.28;;
14599;SDS011;7386;45.586;12.854;2023-07-31T03:09:14;4.43;;;2.95;;
14599;SDS011;7386;45.586;12.854;2023-07-31T03:11:42;3.80;;;2.90;;
14599;SDS011;7386;45.586;12.854;2023-07-31T03:14:11;4.75;;;3.00;;
14599;SDS011;7386;45.586;12.854;2023-07-31T03:16:43;4.20;;;2.78;;
14599;SDS011;7386;45.586;12.854;2023-07-31T03:19:11;3.10;;;2.70;;
14599;SDS011;7386;45.586;12.854;2023-07-31T03:21:40;4.78;;;3.03;;
14599;SDS011;7386;45.586;12.854;2023-07-31T03:24:08;6.20;;;3.25;;
14599;SDS011;7386;45.586;12.854;2023-07-31T03:26:39;3.67;;;2.97;;
14599;SDS011;7386;45.586;12.854;2023-07-31T03:29:09;5.72;;;3.00;;
14599;SDS011;7386;45.586;12.854;2023-07-31T03:31:37;3.80;;;3.30;;
14599;SDS011;7386;45.586;12.854;2023-07-31T03:34:06;4.75;;;3.35;;
14599;SDS011;7386;45.586;12.854;2023-07-31T03:36:34;3.58;;;3.13;;
14599;SDS011;7386;45.586;12.854;2023-07-31T03:39:03;4.22;;;3.25;;
14599;SDS011;7386;45.586;12.854;2023-07-31T03:41:32;3.72;;;2.92;;
14599;SDS011;7386;45.586;12.854;2023-07-31T03:44:02;3.47;;;3.17;;
14599;SDS011;7386;45.586;12.854;2023-07-31T03:46:30;5.93;;;3.10;;
14599;SDS011;7386;45.586;12.854;2023-07-31T03:49:00;3.40;;;2.92;;
14599;SDS011;7386;45.586;12.854;2023-07-31T03:51:28;4.90;;;3.33;;
14599;SDS011;7386;45.586;12.854;2023-07-31T03:53:57;5.10;;;3.15;;
14599;SDS011;7386;45.586;12.854;2023-07-31T03:56:25;4.22;;;3.10;;
14599;SDS011;7386;45.586;12.854;2023-07-31T03:58:54;4.10;;;2.90;;
14599;SDS011;7386;45.586;12.854;2023-07-31T04:01:23;4.07;;;3.22;;
14599;SDS011;7386;45.586;12.854;2023-07-31T04:03:52;4.07;;;2.90;;
14599;SDS011;7386;45.586;12.854;2023-07-31T04:06:20;5.93;;;3.20;;
14599;SDS011;7386;45.586;12.854;2023-07-31T04:08:49;4.28;;;3.13;;
14599;SDS011;7386;45.586;12.854;2023-07-31T04:11:17;3.72;;;3.33;;
14599;SDS011;7386;45.586;12.854;2023-07-31T04:13:46;4.55;;;3.40;;
14599;SDS011;7386;45.586;12.854;2023-07-31T04:16:14;3.67;;;3.10;;
14599;SDS011;7386;45.586;12.854;2023-07-31T04:18:44;6.18;;;3.08;;
14599;SDS011;7386;45.586;12.854;2023-07-31T04:21:13;4.18;;;3.20;;
14599;SDS011;7386;45.586;12.854;2023-07-31T04:23:41;4.05;;;3.08;;
14599;SDS011;7386;45.586;12.854;2023-07-31T04:26:09;4.07;;;3.20;;
14599;SDS011;7386;45.586;12.854;2023-07-31T04:28:38;5.50;;;3.20;;
14599;SDS011;7386;45.586;12.854;2023-07-31T04:31:07;4.03;;;3.08;;
14599;SDS011;7386;45.586;12.854;2023-07-31T04:33:35;4.47;;;3.20;;
14599;SDS011;7386;45.586;12.854;2023-07-31T04:36:05;3.80;;;3.10;;
14599;SDS011;7386;45.586;12.854;2023-07-31T04:38:34;3.58;;;2.92;;
14599;SDS011;7386;45.586;12.854;2023-07-31T04:41:02;3.78;;;3.10;;
14599;SDS011;7386;45.586;12.854;2023-07-31T04:43:32;3.90;;;3.42;;
14599;SDS011;7386;45.586;12.854;2023-07-31T04:46:00;5.05;;;3.22;;
14599;SDS011;7386;45.586;12.854;2023-07-31T04:48:29;7.00;;;3.17;;
14599;SDS011;7386;45.586;12.854;2023-07-31T04:50:57;4.38;;;3.00;;
14599;SDS011;7386;45.586;12.854;2023-07-31T04:53:27;5.15;;;3.08;;
14599;SDS011;7386;45.586;12.854;2023-07-31T04:55:55;4.43;;;2.92;;
14599;SDS011;7386;45.586;12.854;2023-07-31T04:58:24;5.07;;;3.40;;
14599;SDS011;7386;45.586;12.854;2023-07-31T05:00:52;3.55;;;3.00;;
14599;SDS011;7386;45.586;12.854;2023-07-31T05:03:21;3.88;;;3.10;;
14599;SDS011;7386;45.586;12.854;2023-07-31T05:05:49;4.00;;;3.10;;
14599;SDS011;7386;45.586;12.854;2023-07-31T05:08:18;3.47;;;3.00;;
14599;SDS011;7386;45.586;12.854;2023-07-31T05:10:48;3.30;;;3.00;;
14599;SDS011;7386;45.586;12.854;2023-07-31T05:13:16;4.57;;;3.10;;
14599;SDS011;7386;45.586;12.854;2023-07-31T05:15:45;3.03;;;2.78;;
14599;SDS011;7386;45.586;12.854;2023-07-31T05:18:15;3.17;;;2.85;;
14599;SDS011;7386;45.586;12.854;2023-07-31T05:20:44;5.03;;;3.30;;
14599;SDS011;7386;45.586;12.854;2023-07-31T05:23:12;3.78;;;3.10;;
14599;SDS011;7386;45.586;12.854;2023-07-31T05:25:41;4.30;;;2.80;;
14599;SDS011;7386;45.586;12.854;2023-07-31T05:28:11;3.72;;;3.00;;
14599;SDS011;7386;45.586;12.854;2023-07-31T05:30:39;3.67;;;3.22;;
14599;SDS011;7386;45.586;12.854;2023-07-31T05:33:08;5.50;;;3.35;;
14599;SDS011;7386;45.586;12.854;2023-07-31T05:35:40;3.38;;;3.05;;
14599;SDS011;7386;45.586;12.854;2023-07-31T05:38:08;4.18;;;3.03;;
14599;SDS011;7386;45.586;12.854;2023-07-31T05:40:37;3.78;;;3.30;;
14599;SDS011;7386;45.586;12.854;2023-07-31T05:43:05;3.55;;;2.90;;
14599;SDS011;7386;45.586;12.854;2023-07-31T05:45:36;8.30;;;3.55;;
14599;SDS011;7386;45.586;12.854;2023-07-31T05:48:04;5.10;;;3.25;;
14599;SDS011;7386;45.586;12.854;2023-07-31T05:50:33;3.35;;;3.05;;
14599;SDS011;7386;45.586;12.854;2023-07-31T05:53:01;3.30;;;2.65;;
14599;SDS011;7386;45.586;12.854;2023-07-31T05:55:30;2.40;;;2.20;;
14599;SDS011;7386;45.586;12.854;2023-07-31T05:57:58;2.05;;;1.88;;
14599;SDS011;7386;45.586;12.854;2023-07-31T06:00:27;2.20;;;1.55;;
14599;SDS011;7386;45.586;12.854;2023-07-31T06:02:57;1.80;;;1.70;;
14599;SDS011;7386;45.586;12.854;2023-07-31T06:05:25;1.52;;;1.42;;
14599;SDS011;7386;45.586;12.854;2023-07-31T06:07:56;2.00;;;1.80;;
14599;SDS011;7386;45.586;12.854;2023-07-31T06:10:25;1.98;;;1.58;;
14599;SDS011;7386;45.586;12.854;2023-07-31T06:12:54;2.47;;;1.70;;
14599;SDS011;7386;45.586;12.854;2023-07-31T06:15:23;2.05;;;1.90;;
14599;SDS011;7386;45.586;12.854;2023-07-31T06:17:52;1.77;;;1.67;;
14599;SDS011;7386;45.586;12.854;2023-07-31T06:20:22;1.45;;;1.35;;
14599;SDS011;7386;45.586;12.854;2023-07-31T06:22:50;1.70;;;1.60;;
14599;SDS011;7386;45.586;12.854;2023-07-31T06:25:19;2.72;;;1.60;;
14599;SDS011;7386;45.586;12.854;2023-07-31T06:27:47;1.80;;;1.70;;
14599;SDS011;7386;45.586;12.854;2023-07-31T06:30:16;1.80;;;1.70;;
14599;SDS011;7386;45.586;12.854;2023-07-31T06:32:45;1.73;;;1.63;;
14599;SDS011;7386;45.586;12.854;2023-07-31T06:35:13;1.80;;;1.70;;
14599;SDS011;7386;45.586;12.854;2023-07-31T06:37:43;2.08;;;1.90;;
14599;SDS011;7386;45.586;12.854;2023-07-31T06:40:12;1.80;;;1.48;;
14599;SDS011;7386;45.586;12.854;2023-07-31T06:42:40;1.67;;;1.58;;
14599;SDS011;7386;45.586;12.854;2023-07-31T06:45:09;1.70;;;1.60;;
14599;SDS011;7386;45.586;12.854;2023-07-31T06:47:38;1.63;;;1.52;;
14599;SDS011;7386;45.586;12.854;2023-07-31T06:50:07;1.67;;;1.58;;
14599;SDS011;7386;45.586;12.854;2023-07-31T06:52:36;1.50;;;1.40;;
14599;SDS011;7386;45.586;12.854;2023-07-31T06:55:16;2.30;;;1.70;;
14599;SDS011;7386;45.586;12.854;2023-07-31T06:57:45;1.73;;;1.63;;
14599;SDS011;7386;45.586;12.854;2023-07-31T07:00:13;2.10;;;1.88;;
14599;SDS011;7386;45.586;12.854;2023-07-31T07:02:42;2.50;;;2.10;;
14599;SDS011;7386;45.586;12.854;2023-07-31T07:05:10;2.30;;;2.10;;
14599;SDS011;7386;45.586;12.854;2023-07-31T07:07:40;2.20;;;2.00;;
14599;SDS011;7386;45.586;12.854;2023-07-31T07:10:10;1.90;;;1.80;;
14599;SDS011;7386;45.586;12.854;2023-07-31T07:12:38;2.08;;;1.88;;
14599;SDS011;7386;45.586;12.854;2023-07-31T07:15:07;2.30;;;2.10;;
14599;SDS011;7386;45.586;12.854;2023-07-31T07:17:36;2.83;;;2.20;;
14599;SDS011;7386;45.586;12.854;2023-07-31T07:20:05;2.03;;;1.80;;
14599;SDS011;7386;45.586;12.854;2023-07-31T07:22:34;2.20;;;2.00;;
14599;SDS011;7386;45.586;12.854;2023-07-31T07:25:03;2.30;;;2.00;;
14599;SDS011;7386;45.586;12.854;2023-07-31T07:27:34;2.40;;;2.20;;
14599;SDS011;7386;45.586;12.854;2023-07-31T07:30:03;4.63;;;2.50;;
14599;SDS011;7386;45.586;12.854;2023-07-31T07:32:32;2.60;;;2.28;;
14599;SDS011;7386;45.586;12.854;2023-07-31T07:35:01;3.40;;;2.53;;
14599;SDS011;7386;45.586;12.854;2023-07-31T07:37:29;2.72;;;2.35;;
14599;SDS011;7386;45.586;12.854;2023-07-31T07:39:59;3.38;;;2.10;;
14599;SDS011;7386;45.586;12.854;2023-07-31T07:42:28;3.13;;;2.30;;
14599;SDS011;7386;45.586;12.854;2023-07-31T07:44:58;2.50;;;2.30;;
14599;SDS011;7386;45.586;12.854;2023-07-31T07:47:27;2.80;;;2.20;;
14599;SDS011;7386;45.586;12.854;2023-07-31T07:49:55;2.97;;;2.15;;
14599;SDS011;7386;45.586;12.854;2023-07-31T07:52:24;2.75;;;1.92;;
14599;SDS011;7386;45.586;12.854;2023-07-31T07:54:52;2.30;;;2.10;;
14599;SDS011;7386;45.586;12.854;2023-07-31T07:57:21;5.78;;;2.80;;
14599;SDS011;7386;45.586;12.854;2023-07-31T07:59:49;3.22;;;2.30;;
14599;SDS011;7386;45.586;12.854;2023-07-31T08:02:19;2.20;;;2.00;;
14599;SDS011;7386;45.586;12.854;2023-07-31T08:04:47;4.30;;;2.33;;
14599;SDS011;7386;45.586;12.854;2023-07-31T08:07:16;3.45;;;2.30;;
14599;SDS011;7386;45.586;12.854;2023-07-31T08:09:44;2.88;;;2.10;;
14599;SDS011;7386;45.586;12.854;2023-07-31T08:12:13;2.53;;;2.25;;
14599;SDS011;7386;45.586;12.854;2023-07-31T08:14:41;3.42;;;2.30;;
14599;SDS011;7386;45.586;12.854;2023-07-31T08:17:10;2.40;;;2.20;;
14599;SDS011;7386;45.586;12.854;2023-07-31T08:19:40;3.00;;;2.60;;
14599;SDS011;7386;45.586;12.854;2023-07-31T08:22:08;2.40;;;2.20;;
14599;SDS011;7386;45.586;12.854;2023-07-31T08:24:37;2.30;;;2.10;;
14599;SDS011;7386;45.586;12.854;2023-07-31T08:27:06;2.40;;;2.20;;
14599;SDS011;7386;45.586;12.854;2023-07-31T08:29:34;3.22;;;2.28;;
14599;SDS011;7386;45.586;12.854;2023-07-31T08:32:03;3.47;;;2.78;;
14599;SDS011;7386;45.586;12.854;2023-07-31T08:34:32;3.53;;;2.47;;
14599;SDS011;7386;45.586;12.854;2023-07-31T08:37:02;2.55;;;2.35;;
14599;SDS011;7386;45.586;12.854;2023-07-31T08:39:30;4.15;;;2.60;;
14599;SDS011;7386;45.586;12.854;2023-07-31T08:41:58;5.88;;;2.70;;
14599;SDS011;7386;45.586;12.854;2023-07-31T08:44:27;6.65;;;4.78;;
14599;SDS011;7386;45.586;12.854;2023-07-31T08:46:57;8.77;;;6.75;;
14599;SDS011;7386;45.586;12.854;2023-07-31T08:49:26;7.35;;;4.97;;
14599;SDS011;7386;45.586;12.854;2023-07-31T08:51:55;6.32;;;3.85;;
14599;SDS011;7386;45.586;12.854;2023-07-31T08:54:26;15.18;;;6.50;;
14599;SDS011;7386;45.586;12.854;2023-07-31T08:56:57;25.20;;;11.82;;
14599;SDS011;7386;45.586;12.854;2023-07-31T08:59:26;18.27;;;8.70;;
14599;SDS011;7386;45.586;12.854;2023-07-31T09:01:56;17.85;;;9.55;;
14599;SDS011;7386;45.586;12.854;2023-07-31T09:04:26;16.35;;;11.00;;
14599;SDS011;7386;45.586;12.854;2023-07-31T09:06:57;17.45;;;13.52;;
14599;SDS011;7386;45.586;12.854;2023-07-31T09:09:28;9.82;;;7.50;;
14599;SDS011;7386;45.586;12.854;2023-07-31T09:11:57;12.63;;;10.38;;
14599;SDS011;7386;45.586;12.854;2023-07-31T09:14:26;15.13;;;12.07;;
14599;SDS011;7386;45.586;12.854;2023-07-31T09:16:55;20.90;;;15.13;;
14599;SDS011;7386;45.586;12.854;2023-07-31T09:19:25;23.75;;;17.95;;
14599;SDS011;7386;45.586;12.854;2023-07-31T09:21:54;15.70;;;11.50;;
14599;SDS011;7386;45.586;12.854;2023-07-31T09:24:26;16.92;;;12.68;;
14599;SDS011;7386;45.586;12.854;2023-07-31T09:26:56;23.58;;;18.52;;
14599;SDS011;7386;45.586;12.854;2023-07-31T09:29:26;26.08;;;21.48;;
14599;SDS011;7386;45.586;12.854;2023-07-31T09:31:56;26.70;;;20.95;;
14599;SDS011;7386;45.586;12.854;2023-07-31T09:34:28;28.98;;;23.30;;
14599;SDS011;7386;45.586;12.854;2023-07-31T09:36:58;29.55;;;24.20;;
14599;SDS011;7386;45.586;12.854;2023-07-31T09:39:29;29.48;;;23.48;;
14599;SDS011;7386;45.586;12.854;2023-07-31T09:41:59;29.50;;;23.30;;
14599;SDS011;7386;45.586;12.854;2023-07-31T09:44:37;30.25;;;23.58;;
14599;SDS011;7386;45.586;12.854;2023-07-31T09:47:06;29.25;;;23.55;;
14599;SDS011;7386;45.586;12.854;2023-07-31T09:49:35;32.45;;;24.77;;
14599;SDS011;7386;45.586;12.854;2023-07-31T09:52:03;29.60;;;23.63;;
14599;SDS011;7386;45.586;12.854;2023-07-31T09:54:39;29.65;;;23.90;;
14599;SDS011;7386;45.586;12.854;2023-07-31T09:57:09;30.98;;;24.50;;
14599;SDS011;7386;45.586;12.854;2023-07-31T09:59:38;28.85;;;22.60;;
14599;SDS011;7386;45.586;12.854;2023-07-31T10:04:36;26.17;;;20.77;;
14599;SDS011;7386;45.586;12.854;2023-07-31T10:07:05;30.70;;;23.27;;
14599;SDS011;7386;45.586;12.854;2023-07-31T10:09:33;29.65;;;23.83;;
14599;SDS011;7386;45.586;12.854;2023-07-31T10:12:02;28.23;;;21.35;;
14599;SDS011;7386;45.586;12.854;2023-07-31T10:14:37;30.50;;;24.60;;
14599;SDS011;7386;45.586;12.854;2023-07-31T10:17:06;34.13;;;27.33;;
14599;SDS011;7386;45.586;12.854;2023-07-31T10:19:34;38.20;;;30.42;;
14599;SDS011;7386;45.586;12.854;2023-07-31T10:22:03;38.78;;;30.50;;
14599;SDS011;7386;45.586;12.854;2023-07-31T10:24:32;39.70;;;31.27;;
14599;SDS011;7386;45.586;12.854;2023-07-31T10:27:01;40.60;;;32.42;;
14599;SDS011;7386;45.586;12.854;2023-07-31T10:29:30;38.00;;;30.05;;
14599;SDS011;7386;45.586;12.854;2023-07-31T10:32:01;32.35;;;25.88;;
14599;SDS011;7386;45.586;12.854;2023-07-31T10:34:32;38.42;;;31.02;;
14599;SDS011;7386;45.586;12.854;2023-07-31T10:39:45;34.70;;;27.48;;
14599;SDS011;7386;45.586;12.854;2023-07-31T10:42:27;37.38;;;28.95;;
14599;SDS011;7386;45.586;12.854;2023-07-31T10:44:57;46.00;;;35.65;;
14599;SDS011;7386;45.586;12.854;2023-07-31T10:47:27;43.90;;;32.72;;
14599;SDS011;7386;45.586;12.854;2023-07-31T10:52:39;48.53;;;37.08;;
14599;SDS011;7386;45.586;12.854;2023-07-31T10:55:14;56.25;;;42.88;;
14599;SDS011;7386;45.586;12.854;2023-07-31T10:57:44;59.00;;;45.53;;
14599;SDS011;7386;45.586;12.854;2023-07-31T11:00:22;39.83;;;30.83;;
14599;SDS011;7386;45.586;12.854;2023-07-31T11:03:03;47.15;;;36.45;;
14599;SDS011;7386;45.586;12.854;2023-07-31T11:05:41;55.88;;;44.83;;
14599;SDS011;7386;45.586;12.854;2023-07-31T11:08:11;59.40;;;47.65;;
14599;SDS011;7386;45.586;12.854;2023-07-31T11:10:41;61.00;;;48.95;;
14599;SDS011;7386;45.586;12.854;2023-07-31T11:13:10;47.95;;;37.53;;
14599;SDS011;7386;45.586;12.854;2023-07-31T11:15:39;53.42;;;42.15;;
14599;SDS011;7386;45.586;12.854;2023-07-31T11:18:09;64.60;;;48.53;;
14599;SDS011;7386;45.586;12.854;2023-07-31T11:20:38;43.30;;;33.40;;
14599;SDS011;7386;45.586;12.854;2023-07-31T11:23:08;54.35;;;40.75;;
14599;SDS011;7386;45.586;12.854;2023-07-31T11:25:37;53.08;;;39.95;;
14599;SDS011;7386;45.586;12.854;2023-07-31T11:28:08;62.22;;;48.80;;
14599;SDS011;7386;45.586;12.854;2023-07-31T11:30:37;50.30;;;37.63;;
14599;SDS011;7386;45.586;12.854;2023-07-31T11:33:09;60.53;;;46.25;;
14599;SDS011;7386;45.586;12.854;2023-07-31T11:35:41;66.97;;;51.45;;
14599;SDS011;7386;45.586;12.854;2023-07-31T11:38:11;78.97;;;60.08;;
14599;SDS011;7386;45.586;12.854;2023-07-31T11:40:43;83.75;;;63.42;;
14599;SDS011;7386;45.586;12.854;2023-07-31T11:43:12;51.58;;;40.17;;
14599;SDS011;7386;45.586;12.854;2023-07-31T11:45:44;69.25;;;52.38;;
14599;SDS011;7386;45.586;12.854;2023-07-31T11:48:19;83.70;;;61.42;;
14599;SDS011;7386;45.586;12.854;2023-07-31T11:50:48;82.70;;;62.38;;
14599;SDS011;7386;45.586;12.854;2023-07-31T11:53:19;90.07;;;68.82;;
14599;SDS011;7386;45.586;12.854;2023-07-31T11:55:47;56.65;;;42.95;;
14599;SDS011;7386;45.586;12.854;2023-07-31T11:58:16;51.72;;;39.97;;
14599;SDS011;7386;45.586;12.854;2023-07-31T12:00:46;83.15;;;62.75;;
14599;SDS011;7386;45.586;12.854;2023-07-31T12:03:14;59.33;;;45.85;;
14599;SDS011;7386;45.586;12.854;2023-07-31T12:05:44;80.20;;;59.08;;
14599;SDS011;7386;45.586;12.854;2023-07-31T12:08:15;86.03;;;65.40;;
14599;SDS011;7386;45.586;12.854;2023-07-31T12:10:43;82.82;;;62.28;;
14599;SDS011;7386;45.586;12.854;2023-07-31T12:13:19;65.50;;;51.10;;
14599;SDS011;7386;45.586;12.854;2023-07-31T12:15:48;72.88;;;56.28;;
14599;SDS011;7386;45.586;12.854;2023-07-31T12:18:18;88.95;;;67.15;;
14599;SDS011;7386;45.586;12.854;2023-07-31T12:20:49;64.25;;;46.60;;
14599;SDS011;7386;45.586;12.854;2023-07-31T12:23:18;61.47;;;46.47;;
14599;SDS011;7386;45.586;12.854;2023-07-31T12:25:59;81.28;;;60.05;;
14599;SDS011;7386;45.586;12.854;2023-07-31T12:28:28;56.83;;;41.83;;
14599;SDS011;7386;45.586;12.854;2023-07-31T12:30:57;66.80;;;51.10;;
14599;SDS011;7386;45.586;12.854;2023-07-31T12:33:30;77.22;;;59.80;;
14599;SDS011;7386;45.586;12.854;2023-07-31T12:36:01;95.88;;;70.13;;
14599;SDS011;7386;45.586;12.854;2023-07-31T12:38:30;52.70;;;39.53;;
14599;SDS011;7386;45.586;12.854;2023-07-31T12:40:59;67.22;;;51.15;;
14599;SDS011;7386;45.586;12.854;2023-07-31T12:43:27;83.40;;;61.13;;
14599;SDS011;7386;45.586;12.854;2023-07-31T12:45:56;54.75;;;42.50;;
14599;SDS011;7386;45.586;12.854;2023-07-31T12:48:24;78.50;;;59.08;;
14599;SDS011;7386;45.586;12.854;2023-07-31T12:50:53;60.63;;;45.45;;
14599;SDS011;7386;45.586;12.854;2023-07-31T12:53:22;44.97;;;33.13;;
14599;SDS011;7386;45.586;12.854;2023-07-31T12:55:51;54.72;;;41.45;;
14599;SDS011;7386;45.586;12.854;2023-07-31T12:58:20;84.60;;;62.33;;
14599;SDS011;7386;45.586;12.854;2023-07-31T13:00:48;55.53;;;41.40;;
14599;SDS011;7386;45.586;12.854;2023-07-31T13:03:16;40.80;;;31.27;;
14599;SDS011;7386;45.586;12.854;2023-07-31T13:05:45;64.57;;;50.47;;
14599;SDS011;7386;45.586;12.854;2023-07-31T13:08:14;75.10;;;56.67;;
14599;SDS011;7386;45.586;12.854;2023-07-31T13:10:45;49.78;;;38.22;;
14599;SDS011;7386;45.586;12.854;2023-07-31T13:13:14;54.63;;;43.65;;
14599;SDS011;7386;45.586;12.854;2023-07-31T13:15:43;54.33;;;43.28;;
14599;SDS011;7386;45.586;12.854;2023-07-31T13:18:11;32.47;;;25.02;;
14599;SDS011;7386;45.586;12.854;2023-07-31T13:20:40;71.15;;;53.85;;
14599;SDS011;7386;45.586;12.854;2023-07-31T13:23:09;117.13;;;74.15;;
14599;SDS011;7386;45.586;12.854;2023-07-31T13:25:37;60.50;;;39.38;;
14599;SDS011;7386;45.586;12.854;2023-07-31T13:28:07;73.05;;;51.90;;
14599;SDS011;7386;45.586;12.854;2023-07-31T13:30:36;95.05;;;67.50;;
14599;SDS011;7386;45.586;12.854;2023-07-31T13:33:04;48.40;;;35.90;;
14599;SDS011;7386;45.586;12.854;2023-07-31T13:35:50;19.95;;;15.90;;
14599;SDS011;7386;45.586;12.854;2023-07-31T13:38:19;51.90;;;41.08;;
14599;SDS011;7386;45.586;12.854;2023-07-31T13:40:47;74.65;;;56.38;;
14599;SDS011;7386;45.586;12.854;2023-07-31T13:43:17;40.10;;;29.15;;
14599;SDS011;7386;45.586;12.854;2023-07-31T13:45:46;21.33;;;15.18;;
14599;SDS011;7386;45.586;12.854;2023-07-31T13:48:14;52.42;;;38.35;;
14599;SDS011;7386;45.586;12.854;2023-07-31T13:50:42;67.50;;;52.50;;
14599;SDS011;7386;45.586;12.854;2023-07-31T13:53:11;77.68;;;57.83;;
14599;SDS011;7386;45.586;12.854;2023-07-31T13:55:39;83.70;;;61.72;;
14599;SDS011;7386;45.586;12.854;2023-07-31T13:58:11;78.63;;;59.00;;
14599;SDS011;7386;45.586;12.854;2023-07-31T14:00:41;42.50;;;31.05;;
14599;SDS011;7386;45.586;12.854;2023-07-31T14:03:10;59.05;;;46.78;;
14599;SDS011;7386;45.586;12.854;2023-07-31T14:05:38;49.30;;;38.08;;
14599;SDS011;7386;45.586;12.854;2023-07-31T14:08:07;23.88;;;18.17;;
14599;SDS011;7386;45.586;12.854;2023-07-31T14:10:35;42.00;;;33.28;;
14599;SDS011;7386;45.586;12.854;2023-07-31T14:13:04;53.42;;;41.63;;
14599;SDS011;7386;45.586;12.854;2023-07-31T14:15:32;30.45;;;23.23;;
14599;SDS011;7386;45.586;12.854;2023-07-31T14:18:03;16.85;;;13.40;;
14599;SDS011;7386;45.586;12.854;2023-07-31T14:20:32;49.42;;;38.85;;
14599;SDS011;7386;45.586;12.854;2023-07-31T14:23:01;30.70;;;23.35;;
14599;SDS011;7386;45.586;12.854;2023-07-31T14:25:30;14.38;;;10.95;;
14599;SDS011;7386;45.586;12.854;2023-07-31T14:27:58;44.63;;;34.92;;
14599;SDS011;7386;45.586;12.854;2023-07-31T14:30:27;28.15;;;21.95;;
14599;SDS011;7386;45.586;12.854;2023-07-31T14:32:56;15.23;;;12.05;;
14599;SDS011;7386;45.586;12.854;2023-07-31T14:35:28;40.30;;;31.80;;
14599;SDS011;7386;45.586;12.854;2023-07-31T14:37:56;33.05;;;26.52;;
14599;SDS011;7386;45.586;12.854;2023-07-31T14:40:25;18.17;;;13.60;;
14599;SDS011;7386;45.586;12.854;2023-07-31T14:42:53;34.13;;;27.55;;
14599;SDS011;7386;45.586;12.854;2023-07-31T14:45:22;41.13;;;30.60;;
14599;SDS011;7386;45.586;12.854;2023-07-31T14:47:50;22.52;;;17.55;;
14599;SDS011;7386;45.586;12.854;2023-07-31T14:50:19;10.48;;;8.55;;
14599;SDS011;7386;45.586;12.854;2023-07-31T14:52:50;44.25;;;33.97;;
14599;SDS011;7386;45.586;12.854;2023-07-31T14:55:19;50.78;;;38.88;;
14599;SDS011;7386;45.586;12.854;2023-07-31T14:57:47;26.60;;;20.30;;
14599;SDS011;7386;45.586;12.854;2023-07-31T15:00:16;13.68;;;10.43;;